sensor_id;sensor_type;location;lat;lon;timestamp;P1;durP1;ratioP1;P2;durP2;ratioP2
77876;SDS011;67251;50.844;7.978;2023-05-13T00:01:38;10.27;;;5.22;;
77876;SDS011;67251;50.844;7.978;2023-05-13T00:04:05;10.80;;;5.03;;
77876;SDS011;67251;50.844;7.978;2023-05-13T00:06:31;11.30;;;5.45;;
77876;SDS011;67251;50.844;7.978;2023-05-13T00:08:57;10.50;;;5.72;;
77876;SDS011;67251;50.844;7.978;2023-05-13T00:11:23;9.45;;;4.95;;
77876;SDS011;67251;50.844;7.978;2023-05-13T00:13:48;9.43;;;5.10;;
77876;SDS011;67251;50.844;7.978;2023-05-13T00:16:13;10.25;;;5.40;;
77876;SDS011;67251;50.844;7.978;2023-05-13T00:18:39;12.55;;;5.57;;
77876;SDS011;67251;50.844;7.978;2023-05-13T00:21:04;9.50;;;5.55;;
77876;SDS011;67251;50.844;7.978;2023-05-13T00:23:30;8.77;;;5.15;;
77876;SDS011;67251;50.844;7.978;2023-05-13T00:25:56;11.57;;;5.13;;
77876;SDS011;67251;50.844;7.978;2023-05-13T00:28:22;10.23;;;5.38;;
77876;SDS011;67251;50.844;7.978;2023-05-13T00:30:48;10.73;;;5.55;;
77876;SDS011;67251;50.844;7.978;2023-05-13T00:33:13;11.75;;;5.78;;
77876;SDS011;67251;50.844;7.978;2023-05-13T00:35:39;10.93;;;5.53;;
77876;SDS011;67251;50.844;7.978;2023-05-13T00:38:05;10.25;;;6.18;;
77876;SDS011;67251;50.844;7.978;2023-05-13T00:40:30;11.48;;;6.22;;
77876;SDS011;67251;50.844;7.978;2023-05-13T00:42:58;10.48;;;6.00;;
77876;SDS011;67251;50.844;7.978;2023-05-13T00:45:23;11.48;;;5.70;;
77876;SDS011;67251;50.844;7.978;2023-05-13T00:47:49;11.02;;;5.93;;
77876;SDS011;67251;50.844;7.978;2023-05-13T00:50:15;10.50;;;5.43;;
77876;SDS011;67251;50.844;7.978;2023-05-13T00:52:41;10.43;;;5.70;;
77876;SDS011;67251;50.844;7.978;2023-05-13T00:55:08;10.75;;;5.22;;
77876;SDS011;67251;50.844;7.978;2023-05-13T00:57:34;9.90;;;5.38;;
77876;SDS011;67251;50.844;7.978;2023-05-13T01:00:01;9.38;;;5.40;;
77876;SDS011;67251;50.844;7.978;2023-05-13T01:13:08;9.65;;;5.32;;
77876;SDS011;67251;50.844;7.978;2023-05-13T01:15:44;8.30;;;4.97;;
77876;SDS011;67251;50.844;7.978;2023-05-13T01:18:19;9.95;;;4.82;;
77876;SDS011;67251;50.844;7.978;2023-05-13T01:20:51;10.20;;;5.18;;
77876;SDS011;67251;50.844;7.978;2023-05-13T01:23:17;9.82;;;5.28;;
77876;SDS011;67251;50.844;7.978;2023-05-13T01:25:43;9.35;;;5.32;;
77876;SDS011;67251;50.844;7.978;2023-05-13T01:28:09;9.73;;;5.32;;
77876;SDS011;67251;50.844;7.978;2023-05-13T01:30:35;10.07;;;5.10;;
77876;SDS011;67251;50.844;7.978;2023-05-13T01:33:01;10.52;;;4.97;;
77876;SDS011;67251;50.844;7.978;2023-05-13T01:35:27;11.75;;;5.03;;
77876;SDS011;67251;50.844;7.978;2023-05-13T01:37:54;9.50;;;4.82;;
77876;SDS011;67251;50.844;7.978;2023-05-13T01:40:21;8.70;;;4.85;;
77876;SDS011;67251;50.844;7.978;2023-05-13T01:42:47;8.15;;;4.68;;
77876;SDS011;67251;50.844;7.978;2023-05-13T01:45:12;9.90;;;5.25;;
77876;SDS011;67251;50.844;7.978;2023-05-13T01:47:38;10.75;;;4.85;;
77876;SDS011;67251;50.844;7.978;2023-05-13T01:53:33;11.15;;;4.40;;
77876;SDS011;67251;50.844;7.978;2023-05-13T01:55:58;12.63;;;5.55;;
77876;SDS011;67251;50.844;7.978;2023-05-13T01:58:24;8.35;;;4.53;;
77876;SDS011;67251;50.844;7.978;2023-05-13T02:00:49;10.45;;;4.88;;
77876;SDS011;67251;50.844;7.978;2023-05-13T02:03:15;9.32;;;4.78;;
77876;SDS011;67251;50.844;7.978;2023-05-13T02:05:40;8.25;;;4.22;;
77876;SDS011;67251;50.844;7.978;2023-05-13T02:08:06;9.60;;;4.60;;
77876;SDS011;67251;50.844;7.978;2023-05-13T02:10:31;11.55;;;4.95;;
77876;SDS011;67251;50.844;7.978;2023-05-13T02:12:57;10.13;;;5.15;;
77876;SDS011;67251;50.844;7.978;2023-05-13T02:15:22;11.07;;;5.32;;
77876;SDS011;67251;50.844;7.978;2023-05-13T02:17:47;9.63;;;4.97;;
77876;SDS011;67251;50.844;7.978;2023-05-13T02:20:13;8.40;;;4.28;;
77876;SDS011;67251;50.844;7.978;2023-05-13T02:22:38;11.80;;;4.72;;
77876;SDS011;67251;50.844;7.978;2023-05-13T02:25:04;9.48;;;4.63;;
77876;SDS011;67251;50.844;7.978;2023-05-13T02:27:30;7.97;;;4.30;;
77876;SDS011;67251;50.844;7.978;2023-05-13T02:29:55;8.23;;;4.47;;
77876;SDS011;67251;50.844;7.978;2023-05-13T02:32:21;8.15;;;4.85;;
77876;SDS011;67251;50.844;7.978;2023-05-13T02:34:46;8.15;;;4.65;;
77876;SDS011;67251;50.844;7.978;2023-05-13T02:37:11;12.57;;;5.88;;
77876;SDS011;67251;50.844;7.978;2023-05-13T02:39:37;9.05;;;5.07;;
77876;SDS011;67251;50.844;7.978;2023-05-13T02:42:03;11.68;;;5.03;;
77876;SDS011;67251;50.844;7.978;2023-05-13T02:44:28;9.32;;;4.93;;
77876;SDS011;67251;50.844;7.978;2023-05-13T02:46:54;9.55;;;4.63;;
77876;SDS011;67251;50.844;7.978;2023-05-13T02:49:19;8.25;;;4.75;;
77876;SDS011;67251;50.844;7.978;2023-05-13T02:51:44;11.00;;;4.85;;
77876;SDS011;67251;50.844;7.978;2023-05-13T02:54:11;9.50;;;4.75;;
77876;SDS011;67251;50.844;7.978;2023-05-13T02:56:37;13.70;;;5.28;;
77876;SDS011;67251;50.844;7.978;2023-05-13T02:59:03;9.50;;;5.28;;
77876;SDS011;67251;50.844;7.978;2023-05-13T03:01:28;9.55;;;4.70;;
77876;SDS011;67251;50.844;7.978;2023-05-13T03:03:53;9.27;;;5.05;;
77876;SDS011;67251;50.844;7.978;2023-05-13T03:06:19;8.95;;;4.78;;
77876;SDS011;67251;50.844;7.978;2023-05-13T03:08:44;8.63;;;4.80;;
77876;SDS011;67251;50.844;7.978;2023-05-13T03:11:10;8.15;;;4.90;;
77876;SDS011;67251;50.844;7.978;2023-05-13T03:13:35;9.27;;;4.28;;
77876;SDS011;67251;50.844;7.978;2023-05-13T03:16:01;8.15;;;4.65;;
77876;SDS011;67251;50.844;7.978;2023-05-13T03:18:27;8.32;;;4.22;;
77876;SDS011;67251;50.844;7.978;2023-05-13T03:20:55;8.60;;;4.38;;
77876;SDS011;67251;50.844;7.978;2023-05-13T03:23:20;8.63;;;4.50;;
77876;SDS011;67251;50.844;7.978;2023-05-13T03:25:46;9.00;;;4.63;;
77876;SDS011;67251;50.844;7.978;2023-05-13T03:28:12;9.23;;;4.00;;
77876;SDS011;67251;50.844;7.978;2023-05-13T03:30:38;7.88;;;4.18;;
77876;SDS011;67251;50.844;7.978;2023-05-13T03:33:03;10.75;;;4.65;;
77876;SDS011;67251;50.844;7.978;2023-05-13T03:35:28;7.13;;;3.90;;
77876;SDS011;67251;50.844;7.978;2023-05-13T03:37:54;8.77;;;4.20;;
77876;SDS011;67251;50.844;7.978;2023-05-13T03:40:19;9.43;;;4.75;;
77876;SDS011;67251;50.844;7.978;2023-05-13T03:42:45;7.70;;;4.57;;
77876;SDS011;67251;50.844;7.978;2023-05-13T03:45:11;9.57;;;4.70;;
77876;SDS011;67251;50.844;7.978;2023-05-13T03:47:37;8.18;;;4.30;;
77876;SDS011;67251;50.844;7.978;2023-05-13T03:50:03;10.20;;;4.47;;
77876;SDS011;67251;50.844;7.978;2023-05-13T03:52:29;8.05;;;4.35;;
77876;SDS011;67251;50.844;7.978;2023-05-13T03:54:54;9.05;;;4.68;;
77876;SDS011;67251;50.844;7.978;2023-05-13T03:57:20;11.70;;;4.78;;
77876;SDS011;67251;50.844;7.978;2023-05-13T03:59:45;8.85;;;4.75;;
77876;SDS011;67251;50.844;7.978;2023-05-13T04:02:10;8.48;;;4.80;;
77876;SDS011;67251;50.844;7.978;2023-05-13T04:04:36;7.63;;;4.32;;
77876;SDS011;67251;50.844;7.978;2023-05-13T04:07:01;7.95;;;4.25;;
77876;SDS011;67251;50.844;7.978;2023-05-13T04:09:26;8.30;;;4.55;;
77876;SDS011;67251;50.844;7.978;2023-05-13T04:11:52;10.85;;;5.05;;
77876;SDS011;67251;50.844;7.978;2023-05-13T04:14:18;10.48;;;5.05;;
77876;SDS011;67251;50.844;7.978;2023-05-13T04:16:43;11.65;;;5.35;;
77876;SDS011;67251;50.844;7.978;2023-05-13T04:19:08;8.93;;;5.00;;
77876;SDS011;67251;50.844;7.978;2023-05-13T04:21:34;9.57;;;5.00;;
77876;SDS011;67251;50.844;7.978;2023-05-13T04:23:59;9.38;;;4.80;;
77876;SDS011;67251;50.844;7.978;2023-05-13T04:26:25;9.98;;;4.85;;
77876;SDS011;67251;50.844;7.978;2023-05-13T04:28:50;9.63;;;5.28;;
77876;SDS011;67251;50.844;7.978;2023-05-13T04:31:17;9.45;;;5.30;;
77876;SDS011;67251;50.844;7.978;2023-05-13T04:33:42;10.52;;;4.97;;
77876;SDS011;67251;50.844;7.978;2023-05-13T04:36:09;8.38;;;4.43;;
77876;SDS011;67251;50.844;7.978;2023-05-13T04:38:34;8.98;;;4.80;;
77876;SDS011;67251;50.844;7.978;2023-05-13T04:40:59;10.82;;;5.18;;
77876;SDS011;67251;50.844;7.978;2023-05-13T04:43:25;8.18;;;4.80;;
77876;SDS011;67251;50.844;7.978;2023-05-13T04:45:50;9.55;;;5.18;;
77876;SDS011;67251;50.844;7.978;2023-05-13T04:48:15;12.18;;;5.13;;
77876;SDS011;67251;50.844;7.978;2023-05-13T04:50:44;9.60;;;5.45;;
77876;SDS011;67251;50.844;7.978;2023-05-13T04:53:10;9.48;;;5.22;;
77876;SDS011;67251;50.844;7.978;2023-05-13T04:55:36;8.85;;;5.32;;
77876;SDS011;67251;50.844;7.978;2023-05-13T04:58:01;8.10;;;4.82;;
77876;SDS011;67251;50.844;7.978;2023-05-13T05:00:27;9.43;;;4.53;;
77876;SDS011;67251;50.844;7.978;2023-05-13T05:02:52;9.38;;;4.45;;
77876;SDS011;67251;50.844;7.978;2023-05-13T05:05:17;8.82;;;4.68;;
77876;SDS011;67251;50.844;7.978;2023-05-13T05:07:43;9.30;;;4.90;;
77876;SDS011;67251;50.844;7.978;2023-05-13T05:10:08;7.03;;;4.35;;
77876;SDS011;67251;50.844;7.978;2023-05-13T05:12:34;9.07;;;5.47;;
77876;SDS011;67251;50.844;7.978;2023-05-13T05:15:00;11.18;;;5.15;;
77876;SDS011;67251;50.844;7.978;2023-05-13T05:17:26;9.88;;;5.40;;
77876;SDS011;67251;50.844;7.978;2023-05-13T05:19:53;11.63;;;5.40;;
77876;SDS011;67251;50.844;7.978;2023-05-13T05:22:19;9.32;;;4.78;;
77876;SDS011;67251;50.844;7.978;2023-05-13T05:24:44;9.38;;;5.15;;
77876;SDS011;67251;50.844;7.978;2023-05-13T05:27:11;9.63;;;5.35;;
77876;SDS011;67251;50.844;7.978;2023-05-13T05:29:37;9.15;;;4.88;;
77876;SDS011;67251;50.844;7.978;2023-05-13T05:32:03;12.30;;;5.82;;
77876;SDS011;67251;50.844;7.978;2023-05-13T05:34:29;12.35;;;6.80;;
77876;SDS011;67251;50.844;7.978;2023-05-13T05:36:54;13.73;;;5.68;;
77876;SDS011;67251;50.844;7.978;2023-05-13T05:39:19;9.30;;;5.22;;
77876;SDS011;67251;50.844;7.978;2023-05-13T05:41:45;10.88;;;5.70;;
77876;SDS011;67251;50.844;7.978;2023-05-13T05:44:11;10.15;;;5.70;;
77876;SDS011;67251;50.844;7.978;2023-05-13T05:46:38;11.40;;;5.30;;
77876;SDS011;67251;50.844;7.978;2023-05-13T05:49:03;10.70;;;5.05;;
77876;SDS011;67251;50.844;7.978;2023-05-13T05:51:28;12.25;;;5.15;;
77876;SDS011;67251;50.844;7.978;2023-05-13T05:53:54;8.63;;;5.18;;
77876;SDS011;67251;50.844;7.978;2023-05-13T05:56:21;9.65;;;5.22;;
77876;SDS011;67251;50.844;7.978;2023-05-13T05:58:46;7.40;;;4.53;;
77876;SDS011;67251;50.844;7.978;2023-05-13T06:01:11;8.43;;;4.72;;
77876;SDS011;67251;50.844;7.978;2023-05-13T06:03:37;10.02;;;5.45;;
77876;SDS011;67251;50.844;7.978;2023-05-13T06:06:02;10.02;;;4.47;;
77876;SDS011;67251;50.844;7.978;2023-05-13T06:08:28;9.80;;;4.53;;
77876;SDS011;67251;50.844;7.978;2023-05-13T06:10:57;8.75;;;4.60;;
77876;SDS011;67251;50.844;7.978;2023-05-13T06:13:23;11.73;;;4.68;;
77876;SDS011;67251;50.844;7.978;2023-05-13T06:15:49;8.00;;;5.28;;
77876;SDS011;67251;50.844;7.978;2023-05-13T06:18:14;8.85;;;4.93;;
77876;SDS011;67251;50.844;7.978;2023-05-13T06:20:39;8.73;;;4.63;;
77876;SDS011;67251;50.844;7.978;2023-05-13T06:23:05;7.03;;;4.07;;
77876;SDS011;67251;50.844;7.978;2023-05-13T06:25:31;9.93;;;4.80;;
77876;SDS011;67251;50.844;7.978;2023-05-13T06:27:56;9.32;;;5.03;;
77876;SDS011;67251;50.844;7.978;2023-05-13T06:30:22;8.93;;;4.65;;
77876;SDS011;67251;50.844;7.978;2023-05-13T06:32:47;10.10;;;4.50;;
77876;SDS011;67251;50.844;7.978;2023-05-13T06:35:13;7.78;;;4.40;;
77876;SDS011;67251;50.844;7.978;2023-05-13T06:37:38;7.20;;;4.63;;
77876;SDS011;67251;50.844;7.978;2023-05-13T06:40:04;10.43;;;4.32;;
77876;SDS011;67251;50.844;7.978;2023-05-13T06:42:30;6.70;;;4.13;;
77876;SDS011;67251;50.844;7.978;2023-05-13T06:44:55;8.85;;;4.30;;
77876;SDS011;67251;50.844;7.978;2023-05-13T06:47:21;10.25;;;4.50;;
77876;SDS011;67251;50.844;7.978;2023-05-13T06:49:46;8.52;;;4.35;;
77876;SDS011;67251;50.844;7.978;2023-05-13T06:52:11;9.57;;;4.30;;
77876;SDS011;67251;50.844;7.978;2023-05-13T06:54:37;9.98;;;4.03;;
77876;SDS011;67251;50.844;7.978;2023-05-13T06:57:02;7.35;;;4.10;;
77876;SDS011;67251;50.844;7.978;2023-05-13T06:59:29;6.88;;;4.00;;
77876;SDS011;67251;50.844;7.978;2023-05-13T07:01:55;6.57;;;3.78;;
77876;SDS011;67251;50.844;7.978;2023-05-13T07:04:21;8.02;;;3.95;;
77876;SDS011;67251;50.844;7.978;2023-05-13T07:06:46;6.90;;;4.00;;
77876;SDS011;67251;50.844;7.978;2023-05-13T07:09:13;7.00;;;3.65;;
77876;SDS011;67251;50.844;7.978;2023-05-13T07:11:38;6.85;;;3.78;;
77876;SDS011;67251;50.844;7.978;2023-05-13T07:14:04;8.88;;;3.95;;
77876;SDS011;67251;50.844;7.978;2023-05-13T07:16:30;6.70;;;3.72;;
77876;SDS011;67251;50.844;7.978;2023-05-13T07:18:56;7.35;;;3.60;;
77876;SDS011;67251;50.844;7.978;2023-05-13T07:21:21;5.68;;;3.72;;
77876;SDS011;67251;50.844;7.978;2023-05-13T07:23:46;7.68;;;3.67;;
77876;SDS011;67251;50.844;7.978;2023-05-13T07:26:12;9.13;;;3.58;;
77876;SDS011;67251;50.844;7.978;2023-05-13T07:28:38;7.38;;;3.90;;
77876;SDS011;67251;50.844;7.978;2023-05-13T07:31:03;6.07;;;3.33;;
77876;SDS011;67251;50.844;7.978;2023-05-13T07:33:29;5.78;;;3.70;;
77876;SDS011;67251;50.844;7.978;2023-05-13T07:35:55;6.57;;;3.75;;
77876;SDS011;67251;50.844;7.978;2023-05-13T07:38:20;7.43;;;3.85;;
77876;SDS011;67251;50.844;7.978;2023-05-13T07:40:46;10.30;;;4.10;;
77876;SDS011;67251;50.844;7.978;2023-05-13T07:43:12;7.50;;;4.13;;
77876;SDS011;67251;50.844;7.978;2023-05-13T07:45:38;7.75;;;3.80;;
77876;SDS011;67251;50.844;7.978;2023-05-13T07:48:03;7.05;;;3.90;;
77876;SDS011;67251;50.844;7.978;2023-05-13T07:50:29;9.30;;;4.15;;
77876;SDS011;67251;50.844;7.978;2023-05-13T07:52:55;6.90;;;3.55;;
77876;SDS011;67251;50.844;7.978;2023-05-13T07:55:21;6.53;;;3.70;;
77876;SDS011;67251;50.844;7.978;2023-05-13T07:57:47;6.38;;;3.67;;
77876;SDS011;67251;50.844;7.978;2023-05-13T08:00:13;7.18;;;3.50;;
77876;SDS011;67251;50.844;7.978;2023-05-13T08:02:40;7.18;;;3.60;;
77876;SDS011;67251;50.844;7.978;2023-05-13T08:05:07;6.90;;;3.88;;
77876;SDS011;67251;50.844;7.978;2023-05-13T08:07:33;7.70;;;3.42;;
77876;SDS011;67251;50.844;7.978;2023-05-13T08:09:58;6.53;;;4.32;;
77876;SDS011;67251;50.844;7.978;2023-05-13T08:12:24;6.65;;;3.47;;
77876;SDS011;67251;50.844;7.978;2023-05-13T08:14:49;6.78;;;3.55;;
77876;SDS011;67251;50.844;7.978;2023-05-13T08:17:15;6.20;;;3.40;;
77876;SDS011;67251;50.844;7.978;2023-05-13T08:19:42;7.40;;;3.10;;
77876;SDS011;67251;50.844;7.978;2023-05-13T08:22:07;5.63;;;3.67;;
77876;SDS011;67251;50.844;7.978;2023-05-13T08:24:32;6.10;;;3.20;;
77876;SDS011;67251;50.844;7.978;2023-05-13T08:26:58;7.03;;;3.00;;
77876;SDS011;67251;50.844;7.978;2023-05-13T08:29:23;8.38;;;3.50;;
77876;SDS011;67251;50.844;7.978;2023-05-13T08:31:49;5.53;;;2.92;;
77876;SDS011;67251;50.844;7.978;2023-05-13T08:34:14;4.68;;;2.58;;
77876;SDS011;67251;50.844;7.978;2023-05-13T08:36:40;5.47;;;2.58;;
77876;SDS011;67251;50.844;7.978;2023-05-13T08:39:06;5.47;;;2.75;;
77876;SDS011;67251;50.844;7.978;2023-05-13T08:41:32;5.63;;;2.85;;
77876;SDS011;67251;50.844;7.978;2023-05-13T08:43:58;5.78;;;2.92;;
77876;SDS011;67251;50.844;7.978;2023-05-13T08:46:28;4.70;;;2.60;;
77876;SDS011;67251;50.844;7.978;2023-05-13T08:48:56;5.53;;;3.00;;
77876;SDS011;67251;50.844;7.978;2023-05-13T08:51:22;5.40;;;2.80;;
77876;SDS011;67251;50.844;7.978;2023-05-13T08:53:48;5.25;;;2.70;;
77876;SDS011;67251;50.844;7.978;2023-05-13T08:56:15;4.75;;;2.65;;
77876;SDS011;67251;50.844;7.978;2023-05-13T08:58:42;4.70;;;2.70;;
77876;SDS011;67251;50.844;7.978;2023-05-13T09:01:08;6.57;;;3.47;;
77876;SDS011;67251;50.844;7.978;2023-05-13T09:03:33;5.47;;;2.72;;
77876;SDS011;67251;50.844;7.978;2023-05-13T09:06:04;4.85;;;2.80;;
77876;SDS011;67251;50.844;7.978;2023-05-13T09:08:30;8.18;;;2.92;;
77876;SDS011;67251;50.844;7.978;2023-05-13T09:10:56;4.40;;;2.20;;
77876;SDS011;67251;50.844;7.978;2023-05-13T09:13:22;4.95;;;2.72;;
77876;SDS011;67251;50.844;7.978;2023-05-13T09:15:47;4.68;;;2.35;;
77876;SDS011;67251;50.844;7.978;2023-05-13T09:18:14;4.93;;;2.65;;
77876;SDS011;67251;50.844;7.978;2023-05-13T09:20:39;4.72;;;2.53;;
77876;SDS011;67251;50.844;7.978;2023-05-13T09:23:06;4.93;;;2.50;;
77876;SDS011;67251;50.844;7.978;2023-05-13T09:25:33;4.68;;;2.70;;
77876;SDS011;67251;50.844;7.978;2023-05-13T09:28:04;5.50;;;2.75;;
77876;SDS011;67251;50.844;7.978;2023-05-13T09:30:40;4.55;;;2.55;;
77876;SDS011;67251;50.844;7.978;2023-05-13T09:35:39;5.32;;;2.58;;
77876;SDS011;67251;50.844;7.978;2023-05-13T09:38:19;5.63;;;2.50;;
77876;SDS011;67251;50.844;7.978;2023-05-13T09:40:58;4.60;;;2.63;;
77876;SDS011;67251;50.844;7.978;2023-05-13T09:43:26;4.53;;;2.47;;
77876;SDS011;67251;50.844;7.978;2023-05-13T09:46:03;6.13;;;2.53;;
77876;SDS011;67251;50.844;7.978;2023-05-13T09:48:30;6.15;;;2.80;;
77876;SDS011;67251;50.844;7.978;2023-05-13T09:50:56;6.32;;;2.42;;
77876;SDS011;67251;50.844;7.978;2023-05-13T09:53:23;5.18;;;2.65;;
77876;SDS011;67251;50.844;7.978;2023-05-13T09:55:52;5.00;;;2.67;;
77876;SDS011;67251;50.844;7.978;2023-05-13T09:58:19;5.15;;;2.67;;
77876;SDS011;67251;50.844;7.978;2023-05-13T10:00:46;5.63;;;2.80;;
77876;SDS011;67251;50.844;7.978;2023-05-13T10:03:12;7.05;;;3.03;;
77876;SDS011;67251;50.844;7.978;2023-05-13T10:05:39;4.95;;;2.40;;
77876;SDS011;67251;50.844;7.978;2023-05-13T10:08:11;4.63;;;2.30;;
77876;SDS011;67251;50.844;7.978;2023-05-13T10:10:38;5.20;;;2.08;;
77876;SDS011;67251;50.844;7.978;2023-05-13T10:13:07;5.60;;;2.30;;
77876;SDS011;67251;50.844;7.978;2023-05-13T10:15:40;6.18;;;2.80;;
77876;SDS011;67251;50.844;7.978;2023-05-13T10:20:38;7.15;;;2.53;;
77876;SDS011;67251;50.844;7.978;2023-05-13T10:23:03;4.72;;;2.38;;
77876;SDS011;67251;50.844;7.978;2023-05-13T10:25:29;8.25;;;2.83;;
77876;SDS011;67251;50.844;7.978;2023-05-13T10:27:55;6.47;;;2.50;;
77876;SDS011;67251;50.844;7.978;2023-05-13T10:30:21;5.07;;;3.00;;
77876;SDS011;67251;50.844;7.978;2023-05-13T10:32:50;4.53;;;2.05;;
77876;SDS011;67251;50.844;7.978;2023-05-13T10:35:16;4.22;;;2.20;;
77876;SDS011;67251;50.844;7.978;2023-05-13T10:43:24;6.85;;;2.50;;
77876;SDS011;67251;50.844;7.978;2023-05-13T10:46:00;5.70;;;3.08;;
77876;SDS011;67251;50.844;7.978;2023-05-13T10:48:36;4.10;;;2.30;;
77876;SDS011;67251;50.844;7.978;2023-05-13T10:51:07;4.75;;;2.60;;
77876;SDS011;67251;50.844;7.978;2023-05-13T10:53:50;4.32;;;2.30;;
77876;SDS011;67251;50.844;7.978;2023-05-13T10:56:21;5.43;;;2.58;;
77876;SDS011;67251;50.844;7.978;2023-05-13T10:58:58;7.38;;;3.03;;
77876;SDS011;67251;50.844;7.978;2023-05-13T11:01:36;4.40;;;2.42;;
77876;SDS011;67251;50.844;7.978;2023-05-13T11:04:14;6.63;;;2.67;;
77876;SDS011;67251;50.844;7.978;2023-05-13T11:06:41;4.57;;;2.70;;
77876;SDS011;67251;50.844;7.978;2023-05-13T11:11:47;5.20;;;2.78;;
77876;SDS011;67251;50.844;7.978;2023-05-13T11:14:17;4.97;;;2.60;;
77876;SDS011;67251;50.844;7.978;2023-05-13T11:17:06;6.10;;;2.85;;
77876;SDS011;67251;50.844;7.978;2023-05-13T11:19:34;4.70;;;2.13;;
77876;SDS011;67251;50.844;7.978;2023-05-13T11:24:34;4.75;;;2.30;;
77876;SDS011;67251;50.844;7.978;2023-05-13T11:27:11;5.45;;;2.40;;
77876;SDS011;67251;50.844;7.978;2023-05-13T11:29:40;4.55;;;2.05;;
77876;SDS011;67251;50.844;7.978;2023-05-13T11:32:13;4.53;;;2.15;;
77876;SDS011;67251;50.844;7.978;2023-05-13T11:34:38;4.25;;;2.22;;
77876;SDS011;67251;50.844;7.978;2023-05-13T11:37:14;5.43;;;2.45;;
77876;SDS011;67251;50.844;7.978;2023-05-13T11:39:41;5.30;;;2.58;;
77876;SDS011;67251;50.844;7.978;2023-05-13T11:42:09;5.00;;;2.67;;
77876;SDS011;67251;50.844;7.978;2023-05-13T11:44:36;4.65;;;2.25;;
77876;SDS011;67251;50.844;7.978;2023-05-13T11:47:10;5.45;;;2.35;;
77876;SDS011;67251;50.844;7.978;2023-05-13T11:49:39;4.65;;;2.13;;
77876;SDS011;67251;50.844;7.978;2023-05-13T11:52:12;4.15;;;1.88;;
77876;SDS011;67251;50.844;7.978;2023-05-13T11:54:43;4.53;;;2.10;;
77876;SDS011;67251;50.844;7.978;2023-05-13T11:57:20;7.30;;;2.40;;
77876;SDS011;67251;50.844;7.978;2023-05-13T12:02:29;6.38;;;3.03;;
77876;SDS011;67251;50.844;7.978;2023-05-13T12:05:03;6.07;;;2.85;;
77876;SDS011;67251;50.844;7.978;2023-05-13T12:07:31;6.07;;;2.65;;
77876;SDS011;67251;50.844;7.978;2023-05-13T12:09:57;7.00;;;2.80;;
77876;SDS011;67251;50.844;7.978;2023-05-13T12:12:24;5.72;;;2.80;;
77876;SDS011;67251;50.844;7.978;2023-05-13T12:14:51;7.03;;;2.97;;
77876;SDS011;67251;50.844;7.978;2023-05-13T12:17:17;6.82;;;3.22;;
77876;SDS011;67251;50.844;7.978;2023-05-13T12:22:31;6.20;;;2.85;;
77876;SDS011;67251;50.844;7.978;2023-05-13T12:24:58;5.35;;;2.70;;
77876;SDS011;67251;50.844;7.978;2023-05-13T12:27:26;5.68;;;2.40;;
77876;SDS011;67251;50.844;7.978;2023-05-13T12:29:54;4.15;;;1.83;;
77876;SDS011;67251;50.844;7.978;2023-05-13T12:32:20;3.80;;;1.50;;
77876;SDS011;67251;50.844;7.978;2023-05-13T12:34:48;4.63;;;1.83;;
77876;SDS011;67251;50.844;7.978;2023-05-13T12:37:15;4.28;;;1.83;;
77876;SDS011;67251;50.844;7.978;2023-05-13T12:39:40;4.63;;;2.00;;
77876;SDS011;67251;50.844;7.978;2023-05-13T12:42:13;4.47;;;1.70;;
77876;SDS011;67251;50.844;7.978;2023-05-13T12:44:43;3.58;;;1.55;;
77876;SDS011;67251;50.844;7.978;2023-05-13T12:47:09;4.40;;;1.90;;
77876;SDS011;67251;50.844;7.978;2023-05-13T12:52:24;4.88;;;2.20;;
77876;SDS011;67251;50.844;7.978;2023-05-13T12:54:50;5.38;;;2.22;;
77876;SDS011;67251;50.844;7.978;2023-05-13T12:57:16;5.20;;;2.00;;
77876;SDS011;67251;50.844;7.978;2023-05-13T12:59:42;6.90;;;2.05;;
77876;SDS011;67251;50.844;7.978;2023-05-13T13:02:09;5.20;;;2.15;;
77876;SDS011;67251;50.844;7.978;2023-05-13T13:04:36;5.88;;;2.47;;
77876;SDS011;67251;50.844;7.978;2023-05-13T13:07:01;5.30;;;2.20;;
77876;SDS011;67251;50.844;7.978;2023-05-13T13:09:27;4.43;;;2.35;;
77876;SDS011;67251;50.844;7.978;2023-05-13T13:11:52;6.35;;;2.50;;
77876;SDS011;67251;50.844;7.978;2023-05-13T13:14:18;6.30;;;2.70;;
77876;SDS011;67251;50.844;7.978;2023-05-13T13:16:43;4.85;;;2.13;;
77876;SDS011;67251;50.844;7.978;2023-05-13T13:19:08;5.10;;;2.33;;
77876;SDS011;67251;50.844;7.978;2023-05-13T13:21:34;5.00;;;2.45;;
77876;SDS011;67251;50.844;7.978;2023-05-13T13:23:59;4.93;;;2.30;;
77876;SDS011;67251;50.844;7.978;2023-05-13T13:26:25;5.18;;;2.50;;
77876;SDS011;67251;50.844;7.978;2023-05-13T13:28:50;5.20;;;2.45;;
77876;SDS011;67251;50.844;7.978;2023-05-13T13:31:16;4.50;;;2.33;;
77876;SDS011;67251;50.844;7.978;2023-05-13T13:33:41;5.07;;;2.60;;
77876;SDS011;67251;50.844;7.978;2023-05-13T13:36:06;7.40;;;2.22;;
77876;SDS011;67251;50.844;7.978;2023-05-13T13:38:32;4.32;;;2.30;;
77876;SDS011;67251;50.844;7.978;2023-05-13T13:40:57;5.13;;;2.47;;
77876;SDS011;67251;50.844;7.978;2023-05-13T13:43:23;4.72;;;2.20;;
77876;SDS011;67251;50.844;7.978;2023-05-13T13:45:48;5.22;;;2.35;;
77876;SDS011;67251;50.844;7.978;2023-05-13T13:48:13;4.88;;;2.22;;
77876;SDS011;67251;50.844;7.978;2023-05-13T13:50:39;4.18;;;2.38;;
77876;SDS011;67251;50.844;7.978;2023-05-13T13:53:04;4.85;;;2.10;;
77876;SDS011;67251;50.844;7.978;2023-05-13T13:55:30;3.17;;;1.52;;
77876;SDS011;67251;50.844;7.978;2023-05-13T13:57:55;4.13;;;1.88;;
77876;SDS011;67251;50.844;7.978;2023-05-13T14:00:21;5.15;;;1.70;;
77876;SDS011;67251;50.844;7.978;2023-05-13T14:02:46;3.58;;;1.77;;
77876;SDS011;67251;50.844;7.978;2023-05-13T14:05:12;3.88;;;1.70;;
77876;SDS011;67251;50.844;7.978;2023-05-13T14:07:38;4.30;;;1.63;;
77876;SDS011;67251;50.844;7.978;2023-05-13T14:10:04;4.63;;;1.70;;
77876;SDS011;67251;50.844;7.978;2023-05-13T14:12:31;3.53;;;1.63;;
77876;SDS011;67251;50.844;7.978;2023-05-13T14:14:57;3.20;;;1.40;;
77876;SDS011;67251;50.844;7.978;2023-05-13T14:17:22;3.47;;;1.50;;
77876;SDS011;67251;50.844;7.978;2023-05-13T14:19:48;3.53;;;1.42;;
77876;SDS011;67251;50.844;7.978;2023-05-13T14:22:16;3.80;;;1.63;;
77876;SDS011;67251;50.844;7.978;2023-05-13T14:24:41;4.70;;;1.45;;
77876;SDS011;67251;50.844;7.978;2023-05-13T14:27:07;6.15;;;1.65;;
77876;SDS011;67251;50.844;7.978;2023-05-13T14:29:32;3.78;;;1.65;;
77876;SDS011;67251;50.844;7.978;2023-05-13T14:31:58;3.60;;;1.65;;
77876;SDS011;67251;50.844;7.978;2023-05-13T14:34:23;4.90;;;1.60;;
77876;SDS011;67251;50.844;7.978;2023-05-13T14:36:49;3.55;;;1.60;;
77876;SDS011;67251;50.844;7.978;2023-05-13T14:39:15;4.28;;;1.75;;
77876;SDS011;67251;50.844;7.978;2023-05-13T14:41:40;4.57;;;1.60;;
77876;SDS011;67251;50.844;7.978;2023-05-13T14:44:10;3.88;;;1.65;;
77876;SDS011;67251;50.844;7.978;2023-05-13T14:46:35;5.15;;;1.75;;
77876;SDS011;67251;50.844;7.978;2023-05-13T14:49:02;3.60;;;1.77;;
77876;SDS011;67251;50.844;7.978;2023-05-13T14:51:27;3.35;;;1.30;;
77876;SDS011;67251;50.844;7.978;2023-05-13T14:53:52;5.72;;;1.70;;
77876;SDS011;67251;50.844;7.978;2023-05-13T14:56:18;3.80;;;1.70;;
77876;SDS011;67251;50.844;7.978;2023-05-13T14:58:43;4.55;;;1.60;;
77876;SDS011;67251;50.844;7.978;2023-05-13T15:01:09;4.00;;;1.95;;
77876;SDS011;67251;50.844;7.978;2023-05-13T15:03:34;4.32;;;1.88;;
77876;SDS011;67251;50.844;7.978;2023-05-13T15:05:59;4.18;;;1.90;;
77876;SDS011;67251;50.844;7.978;2023-05-13T15:08:25;4.75;;;1.92;;
77876;SDS011;67251;50.844;7.978;2023-05-13T15:10:51;4.90;;;1.92;;
77876;SDS011;67251;50.844;7.978;2023-05-13T15:13:16;3.92;;;1.90;;
77876;SDS011;67251;50.844;7.978;2023-05-13T15:15:42;5.35;;;1.85;;
77876;SDS011;67251;50.844;7.978;2023-05-13T15:18:08;4.40;;;2.05;;
77876;SDS011;67251;50.844;7.978;2023-05-13T15:20:34;4.43;;;2.13;;